createdAt,value
2024-01-20T00:00:17.901Z,4.90
2024-01-20T00:02:45.264Z,4.43
2024-01-20T00:05:13.496Z,4.80
2024-01-20T00:07:42.344Z,4.68
2024-01-20T00:10:12.337Z,4.63
2024-01-20T00:12:44.716Z,4.13
2024-01-20T00:15:12.902Z,4.28
2024-01-20T00:17:41.245Z,5.18
2024-01-20T00:20:10.205Z,4.97
2024-01-20T00:22:37.761Z,4.72
2024-01-20T00:25:05.351Z,4.68
2024-01-20T00:27:32.653Z,4.50
2024-01-20T00:30:00.662Z,4.75
2024-01-20T00:32:28.121Z,4.07
2024-01-20T00:35:04.824Z,4.28
2024-01-20T00:37:35.343Z,3.97
2024-01-20T00:40:03.332Z,4.88
2024-01-20T00:42:30.281Z,4.13
2024-01-20T00:44:57.193Z,4.15
2024-01-20T00:47:23.964Z,4.55
2024-01-20T00:49:50.725Z,4.35
2024-01-20T00:52:17.538Z,4.82
2024-01-20T00:54:44.346Z,4.15
2024-01-20T00:57:11.052Z,4.35
2024-01-20T00:59:37.779Z,4.43
2024-01-20T01:02:04.790Z,4.88
2024-01-20T01:04:31.569Z,4.65
2024-01-20T01:06:58.328Z,4.28
2024-01-20T01:09:25.121Z,4.38
2024-01-20T01:11:51.863Z,4.68
2024-01-20T01:14:18.729Z,4.47
2024-01-20T01:16:45.709Z,4.20
2024-01-20T01:19:12.526Z,4.50
2024-01-20T01:21:39.300Z,4.80
2024-01-20T01:24:07.331Z,4.45
2024-01-20T01:26:34.392Z,4.80
2024-01-20T01:29:01.410Z,4.82
2024-01-20T01:31:28.330Z,4.72
2024-01-20T01:33:55.117Z,4.63
2024-01-20T01:36:21.919Z,4.38
2024-01-20T01:38:48.620Z,4.85
2024-01-20T01:41:15.425Z,5.15
2024-01-20T01:43:42.344Z,5.38
2024-01-20T01:46:09.845Z,5.35
2024-01-20T01:48:37.364Z,4.97
2024-01-20T01:51:05.340Z,5.32
2024-01-20T01:53:35.529Z,5.47
2024-01-20T01:56:02.578Z,5.95
2024-01-20T01:58:29.734Z,5.63
2024-01-20T02:00:56.493Z,5.43
2024-01-20T02:03:24.017Z,4.93
2024-01-20T02:05:51.165Z,4.88
2024-01-20T02:08:18.287Z,5.70
2024-01-20T02:10:47.909Z,6.03
2024-01-20T02:13:15.506Z,5.53
2024-01-20T02:15:42.784Z,5.60
2024-01-20T02:18:09.633Z,5.35
2024-01-20T02:20:36.382Z,6.05
2024-01-20T02:23:03.985Z,5.25
2024-01-20T02:25:30.697Z,5.43
2024-01-20T02:27:57.436Z,5.90
2024-01-20T02:30:24.232Z,5.38
2024-01-20T02:32:51.091Z,5.32
2024-01-20T02:35:20.173Z,6.03
2024-01-20T02:37:47.560Z,5.55
2024-01-20T02:40:14.400Z,5.72
2024-01-20T02:42:41.352Z,6.10
2024-01-20T02:45:08.523Z,5.82
2024-01-20T02:47:35.475Z,6.30
2024-01-20T02:50:02.314Z,6.05
2024-01-20T02:52:29.064Z,5.68
2024-01-20T02:54:55.804Z,5.78
2024-01-20T02:57:22.567Z,6.05
2024-01-20T02:59:49.558Z,5.75
2024-01-20T03:02:16.375Z,6.28
2024-01-20T03:04:43.136Z,5.88
2024-01-20T03:07:10.069Z,5.93
2024-01-20T03:09:36.912Z,6.38
2024-01-20T03:12:03.937Z,6.18
2024-01-20T03:14:30.904Z,5.55
2024-01-20T03:16:57.650Z,5.60
2024-01-20T03:19:24.558Z,5.90
2024-01-20T03:21:51.375Z,6.32
2024-01-20T03:24:21.282Z,5.82
2024-01-20T03:26:48.288Z,5.80
2024-01-20T03:29:15.126Z,5.57
2024-01-20T03:31:42.172Z,5.50
2024-01-20T03:34:10.247Z,5.25
2024-01-20T03:36:37.048Z,5.93
2024-01-20T03:39:04.298Z,5.82
2024-01-20T03:41:31.220Z,5.68
2024-01-20T03:43:58.307Z,5.90
2024-01-20T03:46:25.180Z,5.85
2024-01-20T03:48:52.091Z,6.38
2024-01-20T03:51:19.107Z,5.40
2024-01-20T03:53:45.876Z,5.78
2024-01-20T03:56:12.681Z,5.13
2024-01-20T03:58:39.903Z,5.57
2024-01-20T04:01:06.791Z,5.63
2024-01-20T04:03:33.639Z,5.55
2024-01-20T04:06:00.437Z,5.70
2024-01-20T04:08:27.289Z,6.30
2024-01-20T04:10:54.043Z,5.32
2024-01-20T04:13:20.878Z,5.82
2024-01-20T04:15:54.895Z,6.13
2024-01-20T04:18:22.008Z,5.78
2024-01-20T04:20:48.969Z,5.65
2024-01-20T04:23:15.911Z,5.47
2024-01-20T04:25:42.709Z,5.13
2024-01-20T04:28:09.889Z,5.47
2024-01-20T04:30:36.847Z,5.20
2024-01-20T04:33:04.101Z,5.70
2024-01-20T04:35:30.942Z,5.63
2024-01-20T04:37:57.743Z,5.72
2024-01-20T04:40:24.558Z,5.95
2024-01-20T04:42:51.343Z,5.10
2024-01-20T04:45:18.204Z,4.95
2024-01-20T04:47:45.026Z,5.03
2024-01-20T04:50:11.884Z,5.40
2024-01-20T04:52:38.889Z,5.57
2024-01-20T04:55:06.148Z,5.85
2024-01-20T04:57:33.113Z,5.75
2024-01-20T05:00:00.051Z,5.18
2024-01-20T05:02:26.803Z,4.90
2024-01-20T05:04:53.701Z,5.30
2024-01-20T05:07:20.564Z,5.18
2024-01-20T05:09:47.352Z,4.70
2024-01-20T05:12:14.217Z,5.18
2024-01-20T05:14:40.941Z,4.90
2024-01-20T05:17:08.134Z,4.90
2024-01-20T05:19:39.555Z,5.20
2024-01-20T05:24:33.348Z,5.03
2024-01-20T05:27:00.345Z,5.43
2024-01-20T05:29:27.232Z,5.20
2024-01-20T05:31:54.130Z,5.10
2024-01-20T05:34:20.980Z,5.57
2024-01-20T05:36:47.821Z,5.00
2024-01-20T05:39:14.980Z,4.75
2024-01-20T05:41:41.799Z,4.90
2024-01-20T05:44:08.949Z,5.32
2024-01-20T05:46:36.058Z,5.28
2024-01-20T05:49:03.014Z,4.93
2024-01-20T05:51:30.022Z,5.18
2024-01-20T05:53:58.371Z,4.78
2024-01-20T05:56:25.256Z,5.28
2024-01-20T05:58:52.164Z,4.85
2024-01-20T06:01:19.335Z,4.90
2024-01-20T06:03:46.270Z,4.85
2024-01-20T06:06:13.622Z,5.35
2024-01-20T06:08:40.863Z,5.38
2024-01-20T06:11:09.257Z,5.53
2024-01-20T06:13:36.131Z,4.85
2024-01-20T06:16:02.944Z,4.88
2024-01-20T06:18:29.805Z,5.05
2024-01-20T06:20:57.816Z,5.63
2024-01-20T06:23:24.619Z,5.25
2024-01-20T06:25:51.391Z,5.30
2024-01-20T06:28:18.909Z,5.40
2024-01-20T06:30:48.012Z,4.57
2024-01-20T06:33:14.967Z,5.28
2024-01-20T06:35:42.006Z,4.65
2024-01-20T06:38:08.742Z,4.82
2024-01-20T06:40:35.626Z,4.93
2024-01-20T06:43:04.749Z,5.45
2024-01-20T06:45:34.583Z,4.75
2024-01-20T06:48:02.788Z,4.82
2024-01-20T06:50:29.628Z,5.13
2024-01-20T06:52:56.477Z,4.70
2024-01-20T06:55:23.274Z,4.53
2024-01-20T06:57:50.041Z,5.13
2024-01-20T07:00:17.058Z,4.80
2024-01-20T07:02:44.320Z,4.60
2024-01-20T07:05:11.442Z,4.53
2024-01-20T07:07:39.357Z,4.80
2024-01-20T07:10:09.935Z,5.20
2024-01-20T07:12:37.771Z,4.20
2024-01-20T07:15:07.143Z,4.90
2024-01-20T07:17:34.894Z,5.07
2024-01-20T07:20:02.001Z,4.95
2024-01-20T07:22:28.789Z,5.05
2024-01-20T07:24:55.621Z,5.40
2024-01-20T07:27:22.704Z,4.88
2024-01-20T07:29:49.700Z,5.38
2024-01-20T07:32:16.605Z,5.32
2024-01-20T07:34:43.655Z,4.55
2024-01-20T07:37:10.565Z,4.93
2024-01-20T07:39:37.455Z,4.68
2024-01-20T07:42:04.779Z,4.90
2024-01-20T07:44:32.944Z,5.20
2024-01-20T07:47:01.113Z,4.82
2024-01-20T07:49:28.198Z,4.50
2024-01-20T07:51:55.083Z,4.20
2024-01-20T07:54:21.899Z,5.28
2024-01-20T07:56:48.760Z,5.28
2024-01-20T07:59:17.587Z,4.93
2024-01-20T08:01:44.443Z,4.53
2024-01-20T08:04:11.378Z,5.03
2024-01-20T08:06:38.395Z,4.93
2024-01-20T08:09:05.528Z,4.88
2024-01-20T08:11:32.379Z,5.13
2024-01-20T08:14:00.008Z,4.65
2024-01-20T08:16:29.481Z,4.22
2024-01-20T08:19:00.049Z,5.25
2024-01-20T08:21:27.047Z,4.50
2024-01-20T08:23:53.857Z,4.93
2024-01-20T08:26:20.581Z,5.13
2024-01-20T08:28:47.342Z,4.68
2024-01-20T08:31:14.340Z,4.65
2024-01-20T08:33:43.308Z,4.82
2024-01-20T08:36:10.438Z,4.45
2024-01-20T08:38:37.647Z,4.78
2024-01-20T08:41:11.012Z,5.40
2024-01-20T08:43:43.243Z,4.40
2024-01-20T08:46:11.403Z,5.10
2024-01-20T08:48:38.529Z,5.10
2024-01-20T08:51:05.910Z,4.68
2024-01-20T08:53:34.579Z,4.90
2024-01-20T08:56:02.231Z,4.18
2024-01-20T08:58:29.092Z,4.60
2024-01-20T09:00:56.791Z,4.60
2024-01-20T09:03:23.900Z,4.78
2024-01-20T09:05:50.831Z,4.55
2024-01-20T09:08:17.766Z,4.88
2024-01-20T09:10:44.644Z,4.93
2024-01-20T09:13:11.574Z,4.90
2024-01-20T09:15:38.729Z,4.72
2024-01-20T09:18:05.754Z,4.53
2024-01-20T09:20:32.938Z,5.32
2024-01-20T09:23:00.725Z,5.55
2024-01-20T09:25:28.132Z,4.90
2024-01-20T09:27:54.938Z,5.13
2024-01-20T09:30:21.743Z,5.38
2024-01-20T09:32:48.637Z,5.00
2024-01-20T09:35:15.699Z,5.28
2024-01-20T09:37:42.539Z,5.32
2024-01-20T09:40:10.129Z,5.45
2024-01-20T09:42:37.152Z,4.80
2024-01-20T09:45:04.321Z,5.47
2024-01-20T09:47:31.079Z,5.30
2024-01-20T09:49:57.908Z,4.57
2024-01-20T09:52:30.419Z,5.07
2024-01-20T09:55:16.785Z,4.75
2024-01-20T09:57:45.818Z,4.70
2024-01-20T10:00:15.247Z,4.53
2024-01-20T10:02:45.609Z,5.00
2024-01-20T10:05:13.784Z,4.30
2024-01-20T10:07:40.974Z,4.78
2024-01-20T10:10:08.517Z,5.00
2024-01-20T10:12:35.385Z,4.63
2024-01-20T10:15:02.342Z,5.30
2024-01-20T10:17:29.090Z,4.75
2024-01-20T10:19:55.944Z,5.05
2024-01-20T10:22:23.276Z,4.90
2024-01-20T10:24:51.484Z,5.00
2024-01-20T10:27:19.965Z,4.55
2024-01-20T10:29:50.283Z,4.70
2024-01-20T10:32:17.647Z,4.40
2024-01-20T10:34:45.440Z,4.55
2024-01-20T10:37:13.955Z,4.60
2024-01-20T10:39:47.225Z,4.55
2024-01-20T10:42:15.809Z,4.40
2024-01-20T10:44:49.491Z,4.30
2024-01-20T10:47:29.712Z,4.32
2024-01-20T10:49:56.905Z,4.47
2024-01-20T10:52:23.934Z,4.45
2024-01-20T10:54:52.001Z,4.35
2024-01-20T10:57:19.164Z,4.10
2024-01-20T10:59:46.161Z,4.10
2024-01-20T11:02:13.537Z,4.63
2024-01-20T11:04:45.379Z,4.22
2024-01-20T11:07:13.289Z,4.53
2024-01-20T11:09:40.721Z,4.57
2024-01-20T11:12:08.838Z,3.97
2024-01-20T11:14:36.137Z,3.88
2024-01-20T11:17:13.528Z,4.60
2024-01-20T11:19:40.462Z,4.57
2024-01-20T11:22:27.395Z,3.92
2024-01-20T11:24:55.549Z,4.32
2024-01-20T11:27:22.269Z,4.32
2024-01-20T11:29:49.158Z,4.13
2024-01-20T11:32:15.958Z,3.95
2024-01-20T11:34:42.802Z,4.35
2024-01-20T11:37:09.665Z,4.07
2024-01-20T11:39:36.378Z,4.05
2024-01-20T11:42:04.514Z,4.35
2024-01-20T11:44:32.607Z,4.80
2024-01-20T11:47:00.642Z,3.70
2024-01-20T11:49:27.979Z,4.47
2024-01-20T11:51:55.091Z,4.68
2024-01-20T11:54:22.206Z,4.88
2024-01-20T11:56:57.968Z,4.45
2024-01-20T11:59:25.671Z,4.35
2024-01-20T12:01:52.596Z,4.50
2024-01-20T12:04:20.241Z,4.40
2024-01-20T12:06:47.163Z,4.50
2024-01-20T12:09:14.058Z,3.95
2024-01-20T12:11:41.279Z,5.22
2024-01-20T12:14:09.461Z,4.90
2024-01-20T12:16:36.920Z,4.75
2024-01-20T12:19:04.215Z,4.28
2024-01-20T12:21:31.270Z,4.40
2024-01-20T12:23:58.013Z,4.35
2024-01-20T12:26:25.444Z,4.30
2024-01-20T12:28:54.170Z,3.97
2024-01-20T12:31:23.018Z,4.60
2024-01-20T12:33:50.646Z,4.35
2024-01-20T12:36:17.764Z,4.03
2024-01-20T12:38:44.880Z,4.07
2024-01-20T12:41:12.022Z,3.95
2024-01-20T12:43:38.966Z,3.63
2024-01-20T12:46:06.006Z,3.92
2024-01-20T12:48:33.633Z,3.47
2024-01-20T12:51:01.853Z,3.22
2024-01-20T12:53:28.926Z,3.78
2024-01-20T12:55:55.775Z,3.78
2024-01-20T12:58:22.550Z,3.58
2024-01-20T13:00:49.602Z,3.67
2024-01-20T13:03:16.505Z,3.67
2024-01-20T13:05:46.518Z,4.53
2024-01-20T13:08:13.354Z,3.97
2024-01-20T13:10:40.147Z,3.90
2024-01-20T13:13:07.115Z,3.95
2024-01-20T13:15:33.969Z,3.92
2024-01-20T13:18:00.968Z,3.28
2024-01-20T13:20:27.735Z,3.30
2024-01-20T13:22:54.661Z,3.30
2024-01-20T13:25:21.512Z,3.40
2024-01-20T13:27:51.631Z,3.85
2024-01-20T13:30:18.522Z,3.58
2024-01-20T13:32:45.508Z,3.38
2024-01-20T13:35:12.325Z,3.15
2024-01-20T13:37:39.211Z,3.28
2024-01-20T13:40:07.113Z,3.13
2024-01-20T13:42:33.907Z,3.03
2024-01-20T13:45:00.720Z,3.20
2024-01-20T13:47:27.600Z,2.83
2024-01-20T13:49:54.508Z,3.33
2024-01-20T13:52:21.618Z,3.10
2024-01-20T13:54:49.088Z,3.15
2024-01-20T13:57:15.932Z,3.08
2024-01-20T13:59:42.729Z,3.25
2024-01-20T14:02:09.738Z,3.00
2024-01-20T14:04:36.753Z,2.90
2024-01-20T14:07:06.676Z,2.63
2024-01-20T14:09:33.662Z,3.33
2024-01-20T14:12:00.528Z,3.22
2024-01-20T14:14:27.692Z,3.00
2024-01-20T14:17:01.581Z,3.28
2024-01-20T14:19:29.129Z,2.90
2024-01-20T14:21:56.498Z,2.92
2024-01-20T14:24:23.321Z,2.88
2024-01-20T14:26:50.197Z,3.53
2024-01-20T14:29:16.970Z,2.88
2024-01-20T14:31:47.136Z,3.10
2024-01-20T14:34:14.140Z,2.85
2024-01-20T14:36:46.851Z,3.10
2024-01-20T14:39:14.769Z,2.97
2024-01-20T14:41:41.622Z,2.95
2024-01-20T14:44:08.517Z,2.75
2024-01-20T14:46:35.434Z,2.92
2024-01-20T14:49:05.131Z,2.95
2024-01-20T14:51:34.435Z,3.17
2024-01-20T14:54:02.125Z,2.67
2024-01-20T14:56:32.406Z,3.47
2024-01-20T14:59:05.646Z,3.08
2024-01-20T15:01:33.937Z,2.80
2024-01-20T15:04:01.732Z,3.00
2024-01-20T15:06:29.760Z,3.10
2024-01-20T15:08:56.821Z,2.95
2024-01-20T15:11:23.811Z,2.80
2024-01-20T15:13:50.726Z,3.20
2024-01-20T15:16:17.936Z,3.15
2024-01-20T15:18:44.771Z,2.80
2024-01-20T15:21:11.658Z,2.83
2024-01-20T15:23:38.939Z,3.17
2024-01-20T15:26:05.717Z,2.58
2024-01-20T15:28:32.449Z,2.53
2024-01-20T15:30:59.239Z,2.92
2024-01-20T15:33:26.371Z,2.70
2024-01-20T15:35:56.375Z,3.00
2024-01-20T15:38:23.188Z,3.03
2024-01-20T15:40:50.064Z,2.75
2024-01-20T15:43:16.930Z,3.35
2024-01-20T15:45:43.734Z,2.72
2024-01-20T15:48:10.603Z,2.63
2024-01-20T15:50:37.467Z,2.40
2024-01-20T15:53:04.386Z,3.13
2024-01-20T15:55:31.173Z,2.35
2024-01-20T15:57:58.151Z,2.67
2024-01-20T16:00:25.001Z,2.75
2024-01-20T16:02:51.900Z,2.67
2024-01-20T16:05:18.719Z,2.95
2024-01-20T16:07:45.493Z,2.83
2024-01-20T16:10:12.392Z,2.50
2024-01-20T16:12:40.662Z,2.90
2024-01-20T16:15:08.130Z,2.83
2024-01-20T16:17:37.355Z,2.33
2024-01-20T16:20:04.642Z,2.70
2024-01-20T16:22:33.055Z,2.90
2024-01-20T16:25:00.538Z,2.83
2024-01-20T16:27:27.395Z,2.90
2024-01-20T16:29:54.152Z,2.70
2024-01-20T16:32:20.864Z,2.78
2024-01-20T16:34:47.666Z,2.28
2024-01-20T16:37:14.728Z,2.80
2024-01-20T16:39:41.590Z,2.60
2024-01-20T16:42:08.434Z,2.70
2024-01-20T16:44:35.203Z,2.90
2024-01-20T16:47:02.212Z,2.83
2024-01-20T16:49:29.128Z,3.15
2024-01-20T16:51:57.698Z,2.17
2024-01-20T16:54:26.232Z,2.45
2024-01-20T16:56:53.413Z,2.58
2024-01-20T16:59:20.187Z,2.80
2024-01-20T17:01:46.966Z,2.63
2024-01-20T17:04:14.114Z,2.58
2024-01-20T17:06:41.014Z,2.72
2024-01-20T17:09:08.806Z,2.70
2024-01-20T17:11:35.755Z,2.42
2024-01-20T17:14:04.587Z,2.72
2024-01-20T17:16:35.254Z,3.10
2024-01-20T17:19:04.074Z,2.57
2024-01-20T17:21:31.026Z,2.65
2024-01-20T17:23:57.802Z,2.75
2024-01-20T17:26:30.971Z,2.90
2024-01-20T17:28:58.695Z,2.75
2024-01-20T17:31:33.968Z,2.72
2024-01-20T17:34:04.883Z,2.63
2024-01-20T17:36:31.824Z,2.72
2024-01-20T17:38:59.352Z,2.65
2024-01-20T17:41:26.096Z,2.38
2024-01-20T17:43:52.842Z,2.70
2024-01-20T17:46:19.741Z,2.47
2024-01-20T17:48:46.748Z,2.80
2024-01-20T17:51:13.568Z,2.50
2024-01-20T17:53:40.554Z,2.58
2024-01-20T17:56:07.532Z,3.10
2024-01-20T17:58:35.386Z,2.63
2024-01-20T18:01:02.438Z,2.40
2024-01-20T18:03:29.579Z,3.25
2024-01-20T18:05:56.717Z,2.80
2024-01-20T18:08:25.310Z,2.72
2024-01-20T18:10:52.260Z,2.88
2024-01-20T18:13:19.181Z,2.83
2024-01-20T18:15:46.250Z,2.58
2024-01-20T18:18:13.773Z,2.38
2024-01-20T18:20:40.843Z,2.47
2024-01-20T18:23:07.796Z,3.03
2024-01-20T18:25:35.229Z,2.92
2024-01-20T18:28:01.975Z,2.38
2024-01-20T18:30:28.945Z,2.65
2024-01-20T18:32:55.710Z,2.53
2024-01-20T18:35:22.416Z,2.40
2024-01-20T18:37:50.479Z,2.75
2024-01-20T18:40:17.375Z,2.70
2024-01-20T18:42:46.903Z,2.72
2024-01-20T18:45:14.085Z,2.92
2024-01-20T18:47:41.460Z,3.00
2024-01-20T18:50:12.650Z,3.08
2024-01-20T18:52:39.847Z,2.70
2024-01-20T18:55:06.925Z,2.78
2024-01-20T18:57:34.000Z,3.20
2024-01-20T19:00:01.502Z,2.85
2024-01-20T19:02:28.337Z,2.95
2024-01-20T19:04:55.215Z,2.90
2024-01-20T19:07:21.971Z,3.10
2024-01-20T19:09:48.873Z,3.42
2024-01-20T19:12:16.056Z,3.00
2024-01-20T19:14:42.974Z,3.08
2024-01-20T19:17:15.451Z,3.60
2024-01-20T19:19:43.957Z,3.00
2024-01-20T19:22:11.070Z,3.03
2024-01-20T19:24:37.962Z,3.20
2024-01-20T19:27:05.254Z,3.47
2024-01-20T19:29:32.150Z,2.83
2024-01-20T19:31:58.962Z,2.90
2024-01-20T19:34:25.814Z,3.05
2024-01-20T19:36:52.814Z,2.90
2024-01-20T19:39:19.844Z,3.13
2024-01-20T19:41:46.610Z,2.88
2024-01-20T19:44:13.460Z,3.33
2024-01-20T19:46:41.172Z,3.13
2024-01-20T19:49:08.635Z,2.97
2024-01-20T19:51:39.678Z,2.80
2024-01-20T19:54:06.502Z,3.15
2024-01-20T19:56:33.662Z,3.05
2024-01-20T19:59:00.492Z,2.90
2024-01-20T20:01:27.228Z,3.38
2024-01-20T20:03:54.069Z,2.70
2024-01-20T20:06:20.935Z,3.15
2024-01-20T20:08:47.695Z,2.70
2024-01-20T20:11:14.454Z,3.35
2024-01-20T20:13:41.511Z,2.95
2024-01-20T20:16:10.610Z,2.53
2024-01-20T20:18:37.452Z,2.72
2024-01-20T20:21:04.823Z,2.80
2024-01-20T20:23:31.584Z,3.03
2024-01-20T20:25:58.396Z,2.97
2024-01-20T20:28:25.145Z,3.00
2024-01-20T20:30:57.327Z,2.88
2024-01-20T20:33:30.711Z,3.00
2024-01-20T20:35:57.515Z,3.22
2024-01-20T20:38:24.712Z,2.90
2024-01-20T20:40:52.487Z,3.25
2024-01-20T20:43:19.267Z,3.03
2024-01-20T20:45:46.120Z,2.80
2024-01-20T20:48:12.941Z,3.00
2024-01-20T20:50:39.761Z,3.25
2024-01-20T20:53:06.469Z,3.58
2024-01-20T20:55:34.515Z,3.00
2024-01-20T20:58:01.434Z,3.58
2024-01-20T21:00:28.210Z,2.92
2024-01-20T21:02:55.693Z,2.83
2024-01-20T21:05:22.524Z,3.35
2024-01-20T21:07:49.269Z,2.95
2024-01-20T21:10:18.234Z,3.00
2024-01-20T21:12:45.774Z,3.08
2024-01-20T21:15:16.550Z,3.10
2024-01-20T21:17:43.937Z,3.05
2024-01-20T21:20:12.122Z,2.85
2024-01-20T21:22:38.965Z,2.95
2024-01-20T21:25:06.386Z,3.45
2024-01-20T21:27:33.176Z,3.28
2024-01-20T21:29:59.923Z,3.25
2024-01-20T21:32:27.765Z,3.38
2024-01-20T21:34:54.782Z,3.40
2024-01-20T21:37:21.515Z,3.30
2024-01-20T21:39:48.543Z,3.80
2024-01-20T21:42:19.975Z,3.40
2024-01-20T21:47:14.115Z,3.80
2024-01-20T21:49:41.063Z,3.40
2024-01-20T21:52:07.861Z,3.20
2024-01-20T21:54:34.778Z,3.05
2024-01-20T21:57:02.639Z,3.33
2024-01-20T21:59:29.467Z,3.70
2024-01-20T22:01:56.189Z,3.70
2024-01-20T22:04:23.015Z,4.03
2024-01-20T22:06:51.212Z,3.95
2024-01-20T22:09:18.715Z,3.28
2024-01-20T22:11:45.556Z,3.63
2024-01-20T22:14:12.427Z,4.25
2024-01-20T22:16:39.168Z,4.25
2024-01-20T22:19:07.540Z,3.60
2024-01-20T22:21:34.781Z,3.65
2024-01-20T22:24:01.634Z,3.70
2024-01-20T22:26:28.453Z,4.60
2024-01-20T22:28:57.201Z,3.40
2024-01-20T22:31:25.005Z,3.50
2024-01-20T22:33:53.224Z,3.88
2024-01-20T22:36:19.994Z,3.47
2024-01-20T22:38:46.843Z,3.10
2024-01-20T22:41:17.620Z,3.75
2024-01-20T22:43:45.738Z,4.43
2024-01-20T22:46:19.146Z,3.35
2024-01-20T22:48:46.540Z,3.75
2024-01-20T22:51:23.998Z,3.33
2024-01-20T22:53:51.231Z,3.53
2024-01-20T22:56:17.918Z,3.95
2024-01-20T22:58:48.103Z,3.63
2024-01-20T23:01:17.406Z,3.65
2024-01-20T23:03:45.264Z,3.45
2024-01-20T23:06:12.557Z,3.40
2024-01-20T23:08:40.164Z,3.55
2024-01-20T23:11:07.155Z,3.40
2024-01-20T23:13:33.923Z,3.72
2024-01-20T23:16:00.704Z,3.20
2024-01-20T23:18:27.509Z,3.65
2024-01-20T23:20:54.609Z,3.53
2024-01-20T23:23:21.449Z,3.45
2024-01-20T23:25:48.198Z,3.28
2024-01-20T23:28:14.906Z,3.20
2024-01-20T23:30:42.976Z,3.35
2024-01-20T23:33:10.329Z,3.60
2024-01-20T23:35:37.270Z,3.20
2024-01-20T23:38:04.187Z,3.45
2024-01-20T23:40:31.019Z,3.30
2024-01-20T23:42:57.786Z,3.75
2024-01-20T23:45:24.632Z,3.17
2024-01-20T23:47:51.512Z,2.83
2024-01-20T23:50:18.302Z,3.05
2024-01-20T23:52:45.029Z,3.22
2024-01-20T23:55:11.745Z,3.10
2024-01-20T23:57:40.004Z,3.53
